sensor_id;sensor_type;location;lat;lon;timestamp;P1;durP1;ratioP1;P2;durP2;ratioP2
12271;SDS011;6198;51.446;6.698;2024-02-21T00:00:56;30.50;;;13.97;;
12271;SDS011;6198;51.446;6.698;2024-02-21T00:03:22;29.03;;;13.37;;
12271;SDS011;6198;51.446;6.698;2024-02-21T00:05:48;27.73;;;14.10;;
12271;SDS011;6198;51.446;6.698;2024-02-21T00:08:14;26.20;;;14.03;;
12271;SDS011;6198;51.446;6.698;2024-02-21T00:10:40;26.13;;;12.40;;
12271;SDS011;6198;51.446;6.698;2024-02-21T00:13:05;27.87;;;13.63;;
12271;SDS011;6198;51.446;6.698;2024-02-21T00:15:32;29.17;;;15.00;;
12271;SDS011;6198;51.446;6.698;2024-02-21T00:17:58;28.53;;;13.47;;
12271;SDS011;6198;51.446;6.698;2024-02-21T00:20:24;31.83;;;13.97;;
12271;SDS011;6198;51.446;6.698;2024-02-21T00:22:51;33.67;;;13.83;;
12271;SDS011;6198;51.446;6.698;2024-02-21T00:25:17;25.43;;;13.03;;
12271;SDS011;6198;51.446;6.698;2024-02-21T00:27:43;28.03;;;15.20;;
12271;SDS011;6198;51.446;6.698;2024-02-21T00:30:09;28.77;;;14.83;;
12271;SDS011;6198;51.446;6.698;2024-02-21T00:32:35;32.10;;;16.27;;
12271;SDS011;6198;51.446;6.698;2024-02-21T00:35:01;31.07;;;16.07;;
12271;SDS011;6198;51.446;6.698;2024-02-21T00:37:27;27.37;;;14.53;;
12271;SDS011;6198;51.446;6.698;2024-02-21T00:39:53;29.63;;;14.37;;
12271;SDS011;6198;51.446;6.698;2024-02-21T00:42:19;30.33;;;14.77;;
12271;SDS011;6198;51.446;6.698;2024-02-21T00:44:46;29.83;;;15.40;;
12271;SDS011;6198;51.446;6.698;2024-02-21T00:47:12;32.13;;;14.53;;
12271;SDS011;6198;51.446;6.698;2024-02-21T00:49:38;36.47;;;14.73;;
12271;SDS011;6198;51.446;6.698;2024-02-21T00:52:04;31.70;;;14.23;;
12271;SDS011;6198;51.446;6.698;2024-02-21T00:54:30;24.23;;;13.90;;
12271;SDS011;6198;51.446;6.698;2024-02-21T00:56:55;30.33;;;14.43;;
12271;SDS011;6198;51.446;6.698;2024-02-21T00:59:21;27.07;;;14.10;;
12271;SDS011;6198;51.446;6.698;2024-02-21T01:01:47;26.67;;;14.00;;
12271;SDS011;6198;51.446;6.698;2024-02-21T01:04:13;28.23;;;13.47;;
12271;SDS011;6198;51.446;6.698;2024-02-21T01:06:39;32.20;;;14.63;;
12271;SDS011;6198;51.446;6.698;2024-02-21T01:09:07;25.87;;;12.60;;
12271;SDS011;6198;51.446;6.698;2024-02-21T01:11:33;24.93;;;13.77;;
12271;SDS011;6198;51.446;6.698;2024-02-21T01:13:59;27.30;;;13.77;;
12271;SDS011;6198;51.446;6.698;2024-02-21T01:16:26;26.77;;;13.60;;
12271;SDS011;6198;51.446;6.698;2024-02-21T01:18:52;27.43;;;13.40;;
12271;SDS011;6198;51.446;6.698;2024-02-21T01:21:17;24.87;;;13.30;;
12271;SDS011;6198;51.446;6.698;2024-02-21T01:23:43;26.33;;;14.03;;
12271;SDS011;6198;51.446;6.698;2024-02-21T01:26:09;30.33;;;13.73;;
12271;SDS011;6198;51.446;6.698;2024-02-21T01:28:38;26.10;;;12.90;;
12271;SDS011;6198;51.446;6.698;2024-02-21T01:31:04;26.90;;;12.97;;
12271;SDS011;6198;51.446;6.698;2024-02-21T01:33:30;32.50;;;13.17;;
12271;SDS011;6198;51.446;6.698;2024-02-21T01:36:00;34.33;;;12.27;;
12271;SDS011;6198;51.446;6.698;2024-02-21T01:38:27;21.57;;;11.03;;
12271;SDS011;6198;51.446;6.698;2024-02-21T01:40:53;27.67;;;11.20;;
12271;SDS011;6198;51.446;6.698;2024-02-21T01:43:19;23.37;;;11.23;;
12271;SDS011;6198;51.446;6.698;2024-02-21T01:45:47;21.77;;;11.63;;
12271;SDS011;6198;51.446;6.698;2024-02-21T01:48:14;24.53;;;11.37;;
12271;SDS011;6198;51.446;6.698;2024-02-21T01:50:40;21.27;;;11.00;;
12271;SDS011;6198;51.446;6.698;2024-02-21T01:53:06;17.80;;;10.77;;
12271;SDS011;6198;51.446;6.698;2024-02-21T01:55:33;23.17;;;12.13;;
12271;SDS011;6198;51.446;6.698;2024-02-21T01:57:59;25.93;;;11.80;;
12271;SDS011;6198;51.446;6.698;2024-02-21T02:00:26;29.63;;;12.77;;
12271;SDS011;6198;51.446;6.698;2024-02-21T02:02:52;24.33;;;12.23;;
12271;SDS011;6198;51.446;6.698;2024-02-21T02:05:18;22.30;;;11.67;;
12271;SDS011;6198;51.446;6.698;2024-02-21T02:07:46;29.20;;;12.10;;
12271;SDS011;6198;51.446;6.698;2024-02-21T02:10:12;21.03;;;11.27;;
12271;SDS011;6198;51.446;6.698;2024-02-21T02:12:38;27.37;;;12.03;;
12271;SDS011;6198;51.446;6.698;2024-02-21T02:15:04;24.77;;;10.93;;
12271;SDS011;6198;51.446;6.698;2024-02-21T02:17:30;20.67;;;10.07;;
12271;SDS011;6198;51.446;6.698;2024-02-21T02:19:56;24.37;;;12.07;;
12271;SDS011;6198;51.446;6.698;2024-02-21T02:22:23;20.80;;;11.73;;
12271;SDS011;6198;51.446;6.698;2024-02-21T02:24:53;19.87;;;10.87;;
12271;SDS011;6198;51.446;6.698;2024-02-21T02:27:20;27.97;;;11.33;;
12271;SDS011;6198;51.446;6.698;2024-02-21T02:29:47;23.77;;;10.67;;
12271;SDS011;6198;51.446;6.698;2024-02-21T02:32:14;18.17;;;9.60;;
12271;SDS011;6198;51.446;6.698;2024-02-21T02:34:40;23.90;;;11.50;;
12271;SDS011;6198;51.446;6.698;2024-02-21T02:37:06;27.10;;;10.97;;
12271;SDS011;6198;51.446;6.698;2024-02-21T02:39:32;21.40;;;11.30;;
12271;SDS011;6198;51.446;6.698;2024-02-21T02:41:57;21.50;;;10.27;;
12271;SDS011;6198;51.446;6.698;2024-02-21T02:44:23;17.07;;;9.77;;
12271;SDS011;6198;51.446;6.698;2024-02-21T02:46:49;21.50;;;10.57;;
12271;SDS011;6198;51.446;6.698;2024-02-21T02:49:15;21.17;;;9.80;;
12271;SDS011;6198;51.446;6.698;2024-02-21T02:51:42;19.43;;;10.13;;
12271;SDS011;6198;51.446;6.698;2024-02-21T02:54:08;18.33;;;10.20;;
12271;SDS011;6198;51.446;6.698;2024-02-21T02:56:34;26.70;;;11.63;;
12271;SDS011;6198;51.446;6.698;2024-02-21T02:59:00;24.63;;;11.13;;
12271;SDS011;6198;51.446;6.698;2024-02-21T03:01:26;20.97;;;10.53;;
12271;SDS011;6198;51.446;6.698;2024-02-21T03:03:52;21.00;;;11.03;;
12271;SDS011;6198;51.446;6.698;2024-02-21T03:06:18;20.87;;;10.47;;
12271;SDS011;6198;51.446;6.698;2024-02-21T03:08:44;22.10;;;10.43;;
12271;SDS011;6198;51.446;6.698;2024-02-21T03:11:10;20.20;;;10.10;;
12271;SDS011;6198;51.446;6.698;2024-02-21T03:13:36;22.77;;;10.60;;
12271;SDS011;6198;51.446;6.698;2024-02-21T03:16:02;23.10;;;10.27;;
12271;SDS011;6198;51.446;6.698;2024-02-21T03:18:28;20.57;;;10.90;;
12271;SDS011;6198;51.446;6.698;2024-02-21T03:20:54;23.57;;;10.77;;
12271;SDS011;6198;51.446;6.698;2024-02-21T03:23:20;19.40;;;9.87;;
12271;SDS011;6198;51.446;6.698;2024-02-21T03:25:46;24.97;;;11.30;;
12271;SDS011;6198;51.446;6.698;2024-02-21T03:28:12;22.50;;;10.90;;
12271;SDS011;6198;51.446;6.698;2024-02-21T03:30:38;22.07;;;11.03;;
12271;SDS011;6198;51.446;6.698;2024-02-21T03:33:04;22.57;;;10.27;;
12271;SDS011;6198;51.446;6.698;2024-02-21T03:35:30;19.47;;;10.13;;
12271;SDS011;6198;51.446;6.698;2024-02-21T03:37:59;24.13;;;10.43;;
12271;SDS011;6198;51.446;6.698;2024-02-21T03:40:25;20.20;;;10.17;;
12271;SDS011;6198;51.446;6.698;2024-02-21T03:42:51;21.10;;;9.90;;
12271;SDS011;6198;51.446;6.698;2024-02-21T03:45:17;24.13;;;9.87;;
12271;SDS011;6198;51.446;6.698;2024-02-21T03:47:43;17.23;;;9.67;;
12271;SDS011;6198;51.446;6.698;2024-02-21T03:50:09;23.87;;;10.10;;
12271;SDS011;6198;51.446;6.698;2024-02-21T03:52:35;17.83;;;10.40;;
12271;SDS011;6198;51.446;6.698;2024-02-21T03:55:01;18.23;;;10.20;;
12271;SDS011;6198;51.446;6.698;2024-02-21T03:57:27;20.73;;;10.27;;
12271;SDS011;6198;51.446;6.698;2024-02-21T03:59:53;25.43;;;11.10;;
12271;SDS011;6198;51.446;6.698;2024-02-21T04:02:19;25.70;;;11.17;;
12271;SDS011;6198;51.446;6.698;2024-02-21T04:04:45;21.77;;;9.87;;
12271;SDS011;6198;51.446;6.698;2024-02-21T04:07:12;22.80;;;10.50;;
12271;SDS011;6198;51.446;6.698;2024-02-21T04:09:38;15.77;;;9.77;;
12271;SDS011;6198;51.446;6.698;2024-02-21T04:12:05;20.23;;;9.30;;
12271;SDS011;6198;51.446;6.698;2024-02-21T04:14:31;17.37;;;9.73;;
12271;SDS011;6198;51.446;6.698;2024-02-21T04:16:57;16.67;;;9.27;;
12271;SDS011;6198;51.446;6.698;2024-02-21T04:19:22;19.90;;;9.57;;
12271;SDS011;6198;51.446;6.698;2024-02-21T04:21:48;23.20;;;9.30;;
12271;SDS011;6198;51.446;6.698;2024-02-21T04:24:14;18.70;;;9.43;;
12271;SDS011;6198;51.446;6.698;2024-02-21T04:26:40;15.23;;;9.97;;
12271;SDS011;6198;51.446;6.698;2024-02-21T04:29:06;22.37;;;9.30;;
12271;SDS011;6198;51.446;6.698;2024-02-21T04:31:32;17.37;;;8.73;;
12271;SDS011;6198;51.446;6.698;2024-02-21T04:33:58;24.90;;;10.07;;
12271;SDS011;6198;51.446;6.698;2024-02-21T04:36:24;15.90;;;8.93;;
12271;SDS011;6198;51.446;6.698;2024-02-21T04:38:50;18.23;;;8.67;;
12271;SDS011;6198;51.446;6.698;2024-02-21T04:41:16;15.70;;;7.90;;
12271;SDS011;6198;51.446;6.698;2024-02-21T04:43:42;22.83;;;9.20;;
12271;SDS011;6198;51.446;6.698;2024-02-21T04:46:08;16.67;;;8.27;;
12271;SDS011;6198;51.446;6.698;2024-02-21T04:48:35;17.20;;;8.90;;
12271;SDS011;6198;51.446;6.698;2024-02-21T04:51:00;19.00;;;8.30;;
12271;SDS011;6198;51.446;6.698;2024-02-21T04:53:26;14.20;;;8.00;;
12271;SDS011;6198;51.446;6.698;2024-02-21T04:55:52;19.33;;;9.00;;
12271;SDS011;6198;51.446;6.698;2024-02-21T04:58:18;17.30;;;8.07;;
12271;SDS011;6198;51.446;6.698;2024-02-21T05:00:44;20.37;;;8.17;;
12271;SDS011;6198;51.446;6.698;2024-02-21T05:03:10;12.33;;;6.33;;
12271;SDS011;6198;51.446;6.698;2024-02-21T05:05:36;15.70;;;7.10;;
12271;SDS011;6198;51.446;6.698;2024-02-21T05:08:02;15.03;;;7.87;;
12271;SDS011;6198;51.446;6.698;2024-02-21T05:10:28;16.77;;;7.37;;
12271;SDS011;6198;51.446;6.698;2024-02-21T05:12:54;14.33;;;7.23;;
12271;SDS011;6198;51.446;6.698;2024-02-21T05:15:20;20.60;;;7.97;;
12271;SDS011;6198;51.446;6.698;2024-02-21T05:17:46;14.47;;;7.97;;
12271;SDS011;6198;51.446;6.698;2024-02-21T05:20:12;16.77;;;7.00;;
12271;SDS011;6198;51.446;6.698;2024-02-21T05:22:38;16.30;;;8.13;;
12271;SDS011;6198;51.446;6.698;2024-02-21T05:25:04;15.80;;;6.97;;
12271;SDS011;6198;51.446;6.698;2024-02-21T05:27:30;11.97;;;7.80;;
12271;SDS011;6198;51.446;6.698;2024-02-21T05:29:56;20.87;;;8.30;;
12271;SDS011;6198;51.446;6.698;2024-02-21T05:32:23;19.03;;;8.80;;
12271;SDS011;6198;51.446;6.698;2024-02-21T05:34:49;21.03;;;8.30;;
12271;SDS011;6198;51.446;6.698;2024-02-21T05:37:16;16.93;;;7.77;;
12271;SDS011;6198;51.446;6.698;2024-02-21T05:39:42;16.87;;;8.23;;
12271;SDS011;6198;51.446;6.698;2024-02-21T05:42:08;16.73;;;7.80;;
12271;SDS011;6198;51.446;6.698;2024-02-21T05:44:34;23.80;;;8.80;;
12271;SDS011;6198;51.446;6.698;2024-02-21T05:46:59;18.37;;;9.03;;
12271;SDS011;6198;51.446;6.698;2024-02-21T05:49:25;18.47;;;7.63;;
12271;SDS011;6198;51.446;6.698;2024-02-21T05:51:51;15.47;;;7.37;;
12271;SDS011;6198;51.446;6.698;2024-02-21T05:54:17;22.90;;;8.40;;
12271;SDS011;6198;51.446;6.698;2024-02-21T05:56:44;19.90;;;7.87;;
12271;SDS011;6198;51.446;6.698;2024-02-21T05:59:10;15.63;;;8.03;;
12271;SDS011;6198;51.446;6.698;2024-02-21T06:01:36;16.17;;;8.47;;
12271;SDS011;6198;51.446;6.698;2024-02-21T06:04:02;21.20;;;8.43;;
12271;SDS011;6198;51.446;6.698;2024-02-21T06:06:29;17.23;;;7.53;;
12271;SDS011;6198;51.446;6.698;2024-02-21T06:08:55;20.43;;;8.30;;
12271;SDS011;6198;51.446;6.698;2024-02-21T06:11:23;17.87;;;7.07;;
12271;SDS011;6198;51.446;6.698;2024-02-21T06:13:49;20.10;;;7.57;;
12271;SDS011;6198;51.446;6.698;2024-02-21T06:16:15;12.83;;;7.20;;
12271;SDS011;6198;51.446;6.698;2024-02-21T06:18:41;14.07;;;7.30;;
12271;SDS011;6198;51.446;6.698;2024-02-21T06:21:07;20.40;;;7.10;;
12271;SDS011;6198;51.446;6.698;2024-02-21T06:23:34;14.53;;;6.93;;
12271;SDS011;6198;51.446;6.698;2024-02-21T06:25:59;22.50;;;7.93;;
12271;SDS011;6198;51.446;6.698;2024-02-21T06:28:25;17.40;;;8.33;;
12271;SDS011;6198;51.446;6.698;2024-02-21T06:30:52;14.43;;;7.23;;
12271;SDS011;6198;51.446;6.698;2024-02-21T06:33:17;16.47;;;7.17;;
12271;SDS011;6198;51.446;6.698;2024-02-21T06:35:47;15.47;;;7.40;;
12271;SDS011;6198;51.446;6.698;2024-02-21T06:38:16;14.70;;;7.67;;
12271;SDS011;6198;51.446;6.698;2024-02-21T06:40:42;15.83;;;7.60;;
12271;SDS011;6198;51.446;6.698;2024-02-21T06:43:14;17.77;;;7.83;;
12271;SDS011;6198;51.446;6.698;2024-02-21T06:45:40;18.90;;;7.47;;
12271;SDS011;6198;51.446;6.698;2024-02-21T06:48:05;16.23;;;7.87;;
12271;SDS011;6198;51.446;6.698;2024-02-21T06:50:32;15.07;;;7.30;;
12271;SDS011;6198;51.446;6.698;2024-02-21T06:52:58;13.97;;;7.27;;
12271;SDS011;6198;51.446;6.698;2024-02-21T06:55:24;12.90;;;6.67;;
12271;SDS011;6198;51.446;6.698;2024-02-21T06:57:50;20.17;;;7.73;;
12271;SDS011;6198;51.446;6.698;2024-02-21T07:00:16;14.77;;;7.10;;
12271;SDS011;6198;51.446;6.698;2024-02-21T07:02:42;12.27;;;6.67;;
12271;SDS011;6198;51.446;6.698;2024-02-21T07:05:08;14.33;;;7.47;;
12271;SDS011;6198;51.446;6.698;2024-02-21T07:07:34;12.80;;;6.00;;
12271;SDS011;6198;51.446;6.698;2024-02-21T07:10:00;16.33;;;8.00;;
12271;SDS011;6198;51.446;6.698;2024-02-21T07:12:26;13.20;;;6.90;;
12271;SDS011;6198;51.446;6.698;2024-02-21T07:14:52;14.17;;;6.87;;
12271;SDS011;6198;51.446;6.698;2024-02-21T07:17:18;17.63;;;7.20;;
12271;SDS011;6198;51.446;6.698;2024-02-21T07:19:44;14.93;;;6.83;;
12271;SDS011;6198;51.446;6.698;2024-02-21T07:22:10;16.70;;;6.80;;
12271;SDS011;6198;51.446;6.698;2024-02-21T07:24:36;14.80;;;7.33;;
12271;SDS011;6198;51.446;6.698;2024-02-21T07:27:02;17.20;;;7.10;;
12271;SDS011;6198;51.446;6.698;2024-02-21T07:29:29;12.23;;;7.10;;
12271;SDS011;6198;51.446;6.698;2024-02-21T07:31:55;15.37;;;6.33;;
12271;SDS011;6198;51.446;6.698;2024-02-21T07:34:21;17.37;;;6.93;;
12271;SDS011;6198;51.446;6.698;2024-02-21T07:36:47;12.27;;;6.03;;
12271;SDS011;6198;51.446;6.698;2024-02-21T07:39:13;11.30;;;5.97;;
12271;SDS011;6198;51.446;6.698;2024-02-21T07:41:39;13.10;;;6.87;;
12271;SDS011;6198;51.446;6.698;2024-02-21T07:44:07;12.23;;;5.83;;
12271;SDS011;6198;51.446;6.698;2024-02-21T07:46:33;11.53;;;6.53;;
12271;SDS011;6198;51.446;6.698;2024-02-21T07:49:00;11.23;;;4.60;;
12271;SDS011;6198;51.446;6.698;2024-02-21T07:51:27;14.23;;;6.20;;
12271;SDS011;6198;51.446;6.698;2024-02-21T07:53:53;13.67;;;6.20;;
12271;SDS011;6198;51.446;6.698;2024-02-21T07:56:20;12.63;;;6.00;;
12271;SDS011;6198;51.446;6.698;2024-02-21T07:58:46;13.63;;;6.30;;
12271;SDS011;6198;51.446;6.698;2024-02-21T08:01:17;12.50;;;5.70;;
12271;SDS011;6198;51.446;6.698;2024-02-21T08:03:44;10.77;;;5.67;;
12271;SDS011;6198;51.446;6.698;2024-02-21T08:06:11;15.47;;;6.00;;
12271;SDS011;6198;51.446;6.698;2024-02-21T08:08:38;9.80;;;5.50;;
12271;SDS011;6198;51.446;6.698;2024-02-21T08:11:04;12.07;;;6.27;;
12271;SDS011;6198;51.446;6.698;2024-02-21T08:13:30;11.07;;;5.33;;
12271;SDS011;6198;51.446;6.698;2024-02-21T08:15:56;12.37;;;5.83;;
12271;SDS011;6198;51.446;6.698;2024-02-21T08:18:22;12.17;;;5.50;;
12271;SDS011;6198;51.446;6.698;2024-02-21T08:20:48;13.00;;;5.27;;
12271;SDS011;6198;51.446;6.698;2024-02-21T08:23:18;9.30;;;4.80;;
12271;SDS011;6198;51.446;6.698;2024-02-21T08:25:44;10.23;;;4.77;;
12271;SDS011;6198;51.446;6.698;2024-02-21T08:28:11;11.07;;;5.37;;
12271;SDS011;6198;51.446;6.698;2024-02-21T08:30:37;12.07;;;5.60;;
12271;SDS011;6198;51.446;6.698;2024-02-21T08:33:03;9.37;;;5.20;;
12271;SDS011;6198;51.446;6.698;2024-02-21T08:35:29;12.63;;;6.20;;
12271;SDS011;6198;51.446;6.698;2024-02-21T08:37:55;16.03;;;6.63;;
12271;SDS011;6198;51.446;6.698;2024-02-21T08:40:21;16.30;;;6.07;;
12271;SDS011;6198;51.446;6.698;2024-02-21T08:42:47;18.50;;;6.20;;
12271;SDS011;6198;51.446;6.698;2024-02-21T08:45:14;16.40;;;6.50;;
12271;SDS011;6198;51.446;6.698;2024-02-21T08:47:40;13.87;;;6.00;;
12271;SDS011;6198;51.446;6.698;2024-02-21T08:50:06;15.70;;;7.03;;
12271;SDS011;6198;51.446;6.698;2024-02-21T08:52:34;13.37;;;6.43;;
12271;SDS011;6198;51.446;6.698;2024-02-21T08:55:00;15.63;;;5.87;;
12271;SDS011;6198;51.446;6.698;2024-02-21T08:57:26;16.90;;;5.80;;
12271;SDS011;6198;51.446;6.698;2024-02-21T08:59:53;13.73;;;5.63;;
12271;SDS011;6198;51.446;6.698;2024-02-21T09:02:19;10.97;;;4.90;;
12271;SDS011;6198;51.446;6.698;2024-02-21T09:04:45;11.43;;;4.97;;
12271;SDS011;6198;51.446;6.698;2024-02-21T09:07:11;13.20;;;5.03;;
12271;SDS011;6198;51.446;6.698;2024-02-21T09:09:37;14.27;;;5.57;;
12271;SDS011;6198;51.446;6.698;2024-02-21T09:12:06;12.60;;;5.10;;
12271;SDS011;6198;51.446;6.698;2024-02-21T09:14:33;8.63;;;4.67;;
12271;SDS011;6198;51.446;6.698;2024-02-21T09:16:59;12.60;;;5.03;;
12271;SDS011;6198;51.446;6.698;2024-02-21T09:19:25;10.67;;;5.47;;
12271;SDS011;6198;51.446;6.698;2024-02-21T09:21:51;12.17;;;5.27;;
12271;SDS011;6198;51.446;6.698;2024-02-21T09:24:17;9.07;;;4.80;;
12271;SDS011;6198;51.446;6.698;2024-02-21T09:26:43;8.77;;;4.47;;
12271;SDS011;6198;51.446;6.698;2024-02-21T09:29:09;10.70;;;5.00;;
12271;SDS011;6198;51.446;6.698;2024-02-21T09:31:35;11.07;;;4.67;;
12271;SDS011;6198;51.446;6.698;2024-02-21T09:34:02;10.47;;;4.70;;
12271;SDS011;6198;51.446;6.698;2024-02-21T09:36:28;10.50;;;4.53;;
12271;SDS011;6198;51.446;6.698;2024-02-21T09:38:54;13.23;;;4.57;;
12271;SDS011;6198;51.446;6.698;2024-02-21T09:43:49;11.10;;;4.40;;
12271;SDS011;6198;51.446;6.698;2024-02-21T09:46:18;8.33;;;4.87;;
12271;SDS011;6198;51.446;6.698;2024-02-21T09:49:29;12.37;;;4.47;;
12271;SDS011;6198;51.446;6.698;2024-02-21T09:51:34;7.30;;;3.87;;
12271;SDS011;6198;51.446;6.698;2024-02-21T09:54:00;6.53;;;3.80;;
12271;SDS011;6198;51.446;6.698;2024-02-21T09:56:28;5.80;;;4.00;;
12271;SDS011;6198;51.446;6.698;2024-02-21T09:58:54;9.77;;;3.90;;
12271;SDS011;6198;51.446;6.698;2024-02-21T10:01:20;9.90;;;4.50;;
12271;SDS011;6198;51.446;6.698;2024-02-21T10:03:46;9.43;;;4.37;;
12271;SDS011;6198;51.446;6.698;2024-02-21T10:06:12;8.50;;;3.73;;
12271;SDS011;6198;51.446;6.698;2024-02-21T10:08:38;11.43;;;4.07;;
12271;SDS011;6198;51.446;6.698;2024-02-21T10:11:04;7.10;;;4.00;;
12271;SDS011;6198;51.446;6.698;2024-02-21T10:13:30;8.83;;;3.63;;
12271;SDS011;6198;51.446;6.698;2024-02-21T10:16:03;9.33;;;4.73;;
12271;SDS011;6198;51.446;6.698;2024-02-21T10:18:29;9.50;;;3.73;;
12271;SDS011;6198;51.446;6.698;2024-02-21T10:21:05;10.60;;;4.00;;
12271;SDS011;6198;51.446;6.698;2024-02-21T10:23:44;8.03;;;3.60;;
12271;SDS011;6198;51.446;6.698;2024-02-21T10:26:10;9.00;;;3.53;;
12271;SDS011;6198;51.446;6.698;2024-02-21T10:28:37;7.47;;;3.47;;
12271;SDS011;6198;51.446;6.698;2024-02-21T10:31:07;11.73;;;4.43;;
12271;SDS011;6198;51.446;6.698;2024-02-21T10:33:34;8.47;;;3.63;;
12271;SDS011;6198;51.446;6.698;2024-02-21T10:36:09;8.67;;;3.20;;
12271;SDS011;6198;51.446;6.698;2024-02-21T10:38:39;6.67;;;3.47;;
12271;SDS011;6198;51.446;6.698;2024-02-21T10:41:05;9.07;;;3.87;;
12271;SDS011;6198;51.446;6.698;2024-02-21T10:43:38;11.17;;;4.20;;
12271;SDS011;6198;51.446;6.698;2024-02-21T10:46:07;5.97;;;3.27;;
12271;SDS011;6198;51.446;6.698;2024-02-21T10:48:43;6.10;;;3.27;;
12271;SDS011;6198;51.446;6.698;2024-02-21T10:51:16;8.80;;;3.80;;
12271;SDS011;6198;51.446;6.698;2024-02-21T10:58:45;9.97;;;3.83;;
12271;SDS011;6198;51.446;6.698;2024-02-21T11:01:12;9.63;;;3.60;;
12271;SDS011;6198;51.446;6.698;2024-02-21T11:03:40;8.73;;;3.47;;
12271;SDS011;6198;51.446;6.698;2024-02-21T11:06:06;7.67;;;3.47;;
12271;SDS011;6198;51.446;6.698;2024-02-21T11:08:33;6.77;;;3.00;;
12271;SDS011;6198;51.446;6.698;2024-02-21T11:10:59;7.77;;;3.73;;
12271;SDS011;6198;51.446;6.698;2024-02-21T11:13:31;9.93;;;3.50;;
12271;SDS011;6198;51.446;6.698;2024-02-21T11:16:10;9.07;;;4.10;;
12271;SDS011;6198;51.446;6.698;2024-02-21T11:18:37;6.23;;;3.63;;
12271;SDS011;6198;51.446;6.698;2024-02-21T11:21:03;7.87;;;3.60;;
12271;SDS011;6198;51.446;6.698;2024-02-21T11:23:32;5.93;;;3.23;;
12271;SDS011;6198;51.446;6.698;2024-02-21T11:26:05;13.50;;;3.87;;
12271;SDS011;6198;51.446;6.698;2024-02-21T11:28:31;9.37;;;3.60;;
12271;SDS011;6198;51.446;6.698;2024-02-21T11:31:10;4.77;;;3.40;;
12271;SDS011;6198;51.446;6.698;2024-02-21T11:33:42;10.63;;;4.20;;
12271;SDS011;6198;51.446;6.698;2024-02-21T11:36:11;7.10;;;3.47;;
12271;SDS011;6198;51.446;6.698;2024-02-21T11:38:48;7.50;;;3.33;;
12271;SDS011;6198;51.446;6.698;2024-02-21T11:41:14;8.53;;;3.80;;
12271;SDS011;6198;51.446;6.698;2024-02-21T11:43:40;11.87;;;3.77;;
12271;SDS011;6198;51.446;6.698;2024-02-21T11:46:06;9.53;;;3.60;;
12271;SDS011;6198;51.446;6.698;2024-02-21T11:48:32;7.13;;;3.50;;
12271;SDS011;6198;51.446;6.698;2024-02-21T11:50:58;11.50;;;3.10;;
12271;SDS011;6198;51.446;6.698;2024-02-21T11:53:25;7.47;;;3.70;;
12271;SDS011;6198;51.446;6.698;2024-02-21T11:55:55;9.37;;;3.70;;
12271;SDS011;6198;51.446;6.698;2024-02-21T11:58:22;9.43;;;3.63;;
12271;SDS011;6198;51.446;6.698;2024-02-21T12:00:48;10.10;;;3.90;;
12271;SDS011;6198;51.446;6.698;2024-02-21T12:03:14;7.80;;;3.13;;
12271;SDS011;6198;51.446;6.698;2024-02-21T12:05:43;8.50;;;3.80;;
12271;SDS011;6198;51.446;6.698;2024-02-21T12:08:11;8.57;;;3.43;;
12271;SDS011;6198;51.446;6.698;2024-02-21T12:10:37;8.67;;;3.87;;
12271;SDS011;6198;51.446;6.698;2024-02-21T12:13:09;6.00;;;3.27;;
12271;SDS011;6198;51.446;6.698;2024-02-21T12:15:35;8.87;;;3.80;;
12271;SDS011;6198;51.446;6.698;2024-02-21T12:18:01;10.53;;;3.97;;
12271;SDS011;6198;51.446;6.698;2024-02-21T12:20:27;7.87;;;3.67;;
12271;SDS011;6198;51.446;6.698;2024-02-21T12:22:53;7.33;;;3.73;;
12271;SDS011;6198;51.446;6.698;2024-02-21T12:25:20;11.87;;;4.07;;
12271;SDS011;6198;51.446;6.698;2024-02-21T12:27:52;8.53;;;3.33;;
12271;SDS011;6198;51.446;6.698;2024-02-21T12:30:18;8.63;;;3.77;;
12271;SDS011;6198;51.446;6.698;2024-02-21T12:32:44;8.77;;;3.20;;
12271;SDS011;6198;51.446;6.698;2024-02-21T12:35:10;11.50;;;4.13;;
12271;SDS011;6198;51.446;6.698;2024-02-21T12:37:36;10.50;;;4.10;;
12271;SDS011;6198;51.446;6.698;2024-02-21T12:40:06;8.40;;;3.60;;
12271;SDS011;6198;51.446;6.698;2024-02-21T12:42:33;8.50;;;3.20;;
12271;SDS011;6198;51.446;6.698;2024-02-21T12:44:59;7.53;;;3.10;;
12271;SDS011;6198;51.446;6.698;2024-02-21T12:47:25;8.93;;;4.17;;
12271;SDS011;6198;51.446;6.698;2024-02-21T12:49:52;5.73;;;3.77;;
12271;SDS011;6198;51.446;6.698;2024-02-21T12:52:18;7.07;;;3.03;;
12271;SDS011;6198;51.446;6.698;2024-02-21T12:54:44;10.07;;;3.53;;
12271;SDS011;6198;51.446;6.698;2024-02-21T12:57:10;8.60;;;4.70;;
12271;SDS011;6198;51.446;6.698;2024-02-21T12:59:36;11.53;;;3.63;;
12271;SDS011;6198;51.446;6.698;2024-02-21T13:02:02;6.70;;;4.10;;
12271;SDS011;6198;51.446;6.698;2024-02-21T13:04:27;5.17;;;3.73;;
12271;SDS011;6198;51.446;6.698;2024-02-21T13:06:53;11.10;;;3.83;;
12271;SDS011;6198;51.446;6.698;2024-02-21T13:09:20;9.97;;;3.57;;
12271;SDS011;6198;51.446;6.698;2024-02-21T13:11:46;7.37;;;3.70;;
12271;SDS011;6198;51.446;6.698;2024-02-21T13:14:12;7.40;;;3.50;;
12271;SDS011;6198;51.446;6.698;2024-02-21T13:16:38;11.73;;;3.50;;
12271;SDS011;6198;51.446;6.698;2024-02-21T13:19:05;8.20;;;3.80;;
12271;SDS011;6198;51.446;6.698;2024-02-21T13:21:33;9.83;;;3.20;;
12271;SDS011;6198;51.446;6.698;2024-02-21T13:23:59;9.03;;;3.50;;
12271;SDS011;6198;51.446;6.698;2024-02-21T13:26:25;6.60;;;3.70;;
12271;SDS011;6198;51.446;6.698;2024-02-21T13:28:51;6.37;;;2.90;;
12271;SDS011;6198;51.446;6.698;2024-02-21T13:31:17;7.00;;;3.27;;
12271;SDS011;6198;51.446;6.698;2024-02-21T13:33:42;7.90;;;3.30;;
12271;SDS011;6198;51.446;6.698;2024-02-21T13:36:11;6.80;;;3.17;;
12271;SDS011;6198;51.446;6.698;2024-02-21T13:38:37;10.13;;;3.03;;
12271;SDS011;6198;51.446;6.698;2024-02-21T13:41:04;6.63;;;3.20;;
12271;SDS011;6198;51.446;6.698;2024-02-21T13:43:31;7.23;;;3.00;;
12271;SDS011;6198;51.446;6.698;2024-02-21T13:45:58;8.63;;;3.90;;
12271;SDS011;6198;51.446;6.698;2024-02-21T13:48:24;7.43;;;3.60;;
12271;SDS011;6198;51.446;6.698;2024-02-21T13:50:51;7.67;;;3.03;;
12271;SDS011;6198;51.446;6.698;2024-02-21T13:53:17;7.67;;;3.50;;
12271;SDS011;6198;51.446;6.698;2024-02-21T13:55:46;7.70;;;3.73;;
12271;SDS011;6198;51.446;6.698;2024-02-21T13:58:12;6.43;;;3.67;;
12271;SDS011;6198;51.446;6.698;2024-02-21T14:00:39;8.37;;;3.60;;
12271;SDS011;6198;51.446;6.698;2024-02-21T14:03:05;6.30;;;3.47;;
12271;SDS011;6198;51.446;6.698;2024-02-21T14:05:31;8.50;;;3.30;;
12271;SDS011;6198;51.446;6.698;2024-02-21T14:07:57;6.23;;;3.40;;
12271;SDS011;6198;51.446;6.698;2024-02-21T14:10:22;7.97;;;3.13;;
12271;SDS011;6198;51.446;6.698;2024-02-21T14:12:48;7.73;;;3.33;;
12271;SDS011;6198;51.446;6.698;2024-02-21T14:15:15;11.70;;;3.60;;
12271;SDS011;6198;51.446;6.698;2024-02-21T14:17:43;8.17;;;3.27;;
12271;SDS011;6198;51.446;6.698;2024-02-21T14:20:10;9.07;;;3.90;;
12271;SDS011;6198;51.446;6.698;2024-02-21T14:22:38;6.87;;;3.23;;
12271;SDS011;6198;51.446;6.698;2024-02-21T14:25:04;12.23;;;3.80;;
12271;SDS011;6198;51.446;6.698;2024-02-21T14:27:31;7.70;;;3.27;;
12271;SDS011;6198;51.446;6.698;2024-02-21T14:29:57;6.33;;;3.10;;
12271;SDS011;6198;51.446;6.698;2024-02-21T14:32:23;9.90;;;3.20;;
12271;SDS011;6198;51.446;6.698;2024-02-21T14:34:49;6.17;;;3.20;;
12271;SDS011;6198;51.446;6.698;2024-02-21T14:37:15;11.33;;;3.27;;
12271;SDS011;6198;51.446;6.698;2024-02-21T14:39:41;7.00;;;3.57;;
12271;SDS011;6198;51.446;6.698;2024-02-21T14:42:08;13.63;;;6.10;;
12271;SDS011;6198;51.446;6.698;2024-02-21T14:44:37;26.53;;;11.77;;
12271;SDS011;6198;51.446;6.698;2024-02-21T14:47:03;85.07;;;44.57;;
12271;SDS011;6198;51.446;6.698;2024-02-21T14:49:29;43.43;;;22.97;;
12271;SDS011;6198;51.446;6.698;2024-02-21T14:51:55;59.07;;;29.70;;